sensor_id;sensor_type;location;lat;lon;timestamp;temperature;humidity
41471;DHT22;27211;51.220;5.308;2022-12-18T16:25:22;1.80;99.90
41471;DHT22;27211;51.220;5.308;2022-12-18T16:27:48;1.90;99.90
41471;DHT22;27211;51.220;5.308;2022-12-18T16:30:16;1.80;99.90
41471;DHT22;27211;51.220;5.308;2022-12-18T16:32:42;1.80;99.90
41471;DHT22;27211;51.220;5.308;2022-12-18T16:35:13;1.80;99.90
41471;DHT22;27211;51.220;5.308;2022-12-18T16:37:40;2.10;99.90
41471;DHT22;27211;51.220;5.308;2022-12-18T16:40:07;2.50;99.90
41471;DHT22;27211;51.220;5.308;2022-12-18T16:42:35;2.40;99.90
41471;DHT22;27211;51.220;5.308;2022-12-18T16:45:02;2.50;99.90
41471;DHT22;27211;51.220;5.308;2022-12-18T16:47:28;2.60;99.90
41471;DHT22;27211;51.220;5.308;2022-12-18T16:49:54;2.30;99.90
41471;DHT22;27211;51.220;5.308;2022-12-18T16:52:21;2.30;99.90
41471;DHT22;27211;51.220;5.308;2022-12-18T16:54:47;2.60;99.90
41471;DHT22;27211;51.220;5.308;2022-12-18T16:57:15;2.50;99.90
41471;DHT22;27211;51.220;5.308;2022-12-18T16:59:41;2.30;99.90
41471;DHT22;27211;51.220;5.308;2022-12-18T17:02:26;2.50;99.90
41471;DHT22;27211;51.220;5.308;2022-12-18T17:04:55;2.70;99.90
41471;DHT22;27211;51.220;5.308;2022-12-18T17:07:22;2.80;99.90
41471;DHT22;27211;51.220;5.308;2022-12-18T17:09:48;2.70;99.90
41471;DHT22;27211;51.220;5.308;2022-12-18T17:12:16;2.50;99.90
41471;DHT22;27211;51.220;5.308;2022-12-18T17:14:41;2.50;99.90
41471;DHT22;27211;51.220;5.308;2022-12-18T17:17:09;2.40;99.90
41471;DHT22;27211;51.220;5.308;2022-12-18T17:19:35;2.40;99.90
41471;DHT22;27211;51.220;5.308;2022-12-18T17:22:01;2.20;99.90
41471;DHT22;27211;51.220;5.308;2022-12-18T17:24:27;2.20;99.90
41471;DHT22;27211;51.220;5.308;2022-12-18T17:26:53;2.20;99.90
41471;DHT22;27211;51.220;5.308;2022-12-18T17:29:20;2.10;99.90
41471;DHT22;27211;51.220;5.308;2022-12-18T17:31:47;2.20;99.90
41471;DHT22;27211;51.220;5.308;2022-12-18T17:34:13;2.20;99.90
41471;DHT22;27211;51.220;5.308;2022-12-18T17:36:39;2.10;99.90
41471;DHT22;27211;51.220;5.308;2022-12-18T17:39:07;2.20;99.90
41471;DHT22;27211;51.220;5.308;2022-12-18T17:41:33;2.40;99.90
41471;DHT22;27211;51.220;5.308;2022-12-18T17:44:02;2.40;99.90
41471;DHT22;27211;51.220;5.308;2022-12-18T17:46:30;2.40;99.90
41471;DHT22;27211;51.220;5.308;2022-12-18T17:48:57;2.40;99.90
41471;DHT22;27211;51.220;5.308;2022-12-18T17:51:24;2.40;99.90
41471;DHT22;27211;51.220;5.308;2022-12-18T17:53:50;2.30;99.90
41471;DHT22;27211;51.220;5.308;2022-12-18T17:56:18;2.40;99.90
41471;DHT22;27211;51.220;5.308;2022-12-18T17:58:44;2.50;99.90
41471;DHT22;27211;51.220;5.308;2022-12-18T18:01:16;2.60;99.90
41471;DHT22;27211;51.220;5.308;2022-12-18T18:03:42;2.70;99.90
41471;DHT22;27211;51.220;5.308;2022-12-18T18:06:08;2.70;99.90
41471;DHT22;27211;51.220;5.308;2022-12-18T18:08:35;2.60;99.90
41471;DHT22;27211;51.220;5.308;2022-12-18T18:11:10;2.70;99.90
41471;DHT22;27211;51.220;5.308;2022-12-18T18:13:55;2.70;99.90
41471;DHT22;27211;51.220;5.308;2022-12-18T18:16:42;2.80;99.90
41471;DHT22;27211;51.220;5.308;2022-12-18T18:19:11;3.10;99.90
41471;DHT22;27211;51.220;5.308;2022-12-18T18:21:40;3.00;99.90
41471;DHT22;27211;51.220;5.308;2022-12-18T18:24:07;3.00;99.90
41471;DHT22;27211;51.220;5.308;2022-12-18T18:26:35;3.20;99.90
41471;DHT22;27211;51.220;5.308;2022-12-18T18:29:03;3.10;99.90
41471;DHT22;27211;51.220;5.308;2022-12-18T18:31:30;3.10;99.90
41471;DHT22;27211;51.220;5.308;2022-12-18T18:33:56;3.00;99.90
41471;DHT22;27211;51.220;5.308;2022-12-18T18:36:22;3.00;99.90
41471;DHT22;27211;51.220;5.308;2022-12-18T18:38:50;3.20;99.90
41471;DHT22;27211;51.220;5.308;2022-12-18T18:41:16;3.30;99.90
41471;DHT22;27211;51.220;5.308;2022-12-18T18:43:42;3.40;99.90
41471;DHT22;27211;51.220;5.308;2022-12-18T18:46:11;3.40;99.90
41471;DHT22;27211;51.220;5.308;2022-12-18T18:48:37;3.10;99.90
41471;DHT22;27211;51.220;5.308;2022-12-18T18:51:05;3.10;99.90
41471;DHT22;27211;51.220;5.308;2022-12-18T18:53:38;3.30;99.90
41471;DHT22;27211;51.220;5.308;2022-12-18T18:56:06;3.40;99.90
41471;DHT22;27211;51.220;5.308;2022-12-18T18:58:32;3.40;99.90
41471;DHT22;27211;51.220;5.308;2022-12-18T19:01:00;3.60;99.90
41471;DHT22;27211;51.220;5.308;2022-12-18T19:03:27;3.60;99.90
41471;DHT22;27211;51.220;5.308;2022-12-18T19:05:58;3.50;99.90
41471;DHT22;27211;51.220;5.308;2022-12-18T19:08:27;3.50;99.90
41471;DHT22;27211;51.220;5.308;2022-12-18T19:10:55;3.20;99.90
41471;DHT22;27211;51.220;5.308;2022-12-18T19:13:21;3.10;99.90
41471;DHT22;27211;51.220;5.308;2022-12-18T19:16:04;3.40;99.90
41471;DHT22;27211;51.220;5.308;2022-12-18T19:18:30;3.30;99.90
41471;DHT22;27211;51.220;5.308;2022-12-18T19:21:06;3.40;99.90
41471;DHT22;27211;51.220;5.308;2022-12-18T19:23:33;3.40;99.90
41471;DHT22;27211;51.220;5.308;2022-12-18T19:26:00;3.40;99.90
41471;DHT22;27211;51.220;5.308;2022-12-18T19:28:26;3.20;99.90
41471;DHT22;27211;51.220;5.308;2022-12-18T19:30:54;3.00;99.90
41471;DHT22;27211;51.220;5.308;2022-12-18T19:33:21;3.00;99.90
41471;DHT22;27211;51.220;5.308;2022-12-18T19:35:49;3.00;99.90
41471;DHT22;27211;51.220;5.308;2022-12-18T19:38:15;2.90;99.90
41471;DHT22;27211;51.220;5.308;2022-12-18T19:40:41;2.70;99.90
41471;DHT22;27211;51.220;5.308;2022-12-18T19:43:07;2.60;99.90
41471;DHT22;27211;51.220;5.308;2022-12-18T19:45:34;2.60;99.90
41471;DHT22;27211;51.220;5.308;2022-12-18T19:48:00;2.70;99.90
41471;DHT22;27211;51.220;5.308;2022-12-18T19:50:26;2.70;99.90
41471;DHT22;27211;51.220;5.308;2022-12-18T19:52:52;2.70;99.90
41471;DHT22;27211;51.220;5.308;2022-12-18T19:55:17;2.60;99.90
41471;DHT22;27211;51.220;5.308;2022-12-18T19:57:43;2.60;99.90
41471;DHT22;27211;51.220;5.308;2022-12-18T20:00:10;2.50;99.90
41471;DHT22;27211;51.220;5.308;2022-12-18T20:02:37;2.50;99.90
41471;DHT22;27211;51.220;5.308;2022-12-18T20:05:05;2.40;99.90
41471;DHT22;27211;51.220;5.308;2022-12-18T20:07:32;2.30;99.90
41471;DHT22;27211;51.220;5.308;2022-12-18T20:09:59;2.40;99.90
41471;DHT22;27211;51.220;5.308;2022-12-18T20:12:25;2.40;99.90
41471;DHT22;27211;51.220;5.308;2022-12-18T20:14:51;2.40;99.90
41471;DHT22;27211;51.220;5.308;2022-12-18T20:17:17;2.40;99.90
41471;DHT22;27211;51.220;5.308;2022-12-18T20:19:42;2.50;99.90
41471;DHT22;27211;51.220;5.308;2022-12-18T20:22:08;2.40;99.90
41471;DHT22;27211;51.220;5.308;2022-12-18T20:24:34;2.40;99.90
41471;DHT22;27211;51.220;5.308;2022-12-18T20:27:01;2.30;99.90
41471;DHT22;27211;51.220;5.308;2022-12-18T20:29:27;2.20;99.90
41471;DHT22;27211;51.220;5.308;2022-12-18T20:31:53;2.40;99.90
41471;DHT22;27211;51.220;5.308;2022-12-18T20:34:18;2.40;99.90
41471;DHT22;27211;51.220;5.308;2022-12-18T20:36:44;2.40;99.90
41471;DHT22;27211;51.220;5.308;2022-12-18T20:39:10;2.30;99.90
41471;DHT22;27211;51.220;5.308;2022-12-18T20:41:36;2.30;99.90
41471;DHT22;27211;51.220;5.308;2022-12-18T20:44:03;2.30;99.90
41471;DHT22;27211;51.220;5.308;2022-12-18T20:46:29;2.20;99.90
41471;DHT22;27211;51.220;5.308;2022-12-18T20:48:55;2.20;99.90
41471;DHT22;27211;51.220;5.308;2022-12-18T20:51:21;2.20;99.90
41471;DHT22;27211;51.220;5.308;2022-12-18T20:53:47;2.30;99.90
41471;DHT22;27211;51.220;5.308;2022-12-18T20:56:19;2.20;99.90
41471;DHT22;27211;51.220;5.308;2022-12-18T20:58:45;2.30;99.90
41471;DHT22;27211;51.220;5.308;2022-12-18T21:01:13;2.30;99.90
41471;DHT22;27211;51.220;5.308;2022-12-18T21:03:40;2.40;99.90
41471;DHT22;27211;51.220;5.308;2022-12-18T21:06:07;2.40;99.90
41471;DHT22;27211;51.220;5.308;2022-12-18T21:08:33;2.40;99.90
41471;DHT22;27211;51.220;5.308;2022-12-18T21:14:12;2.50;99.90
41471;DHT22;27211;51.220;5.308;2022-12-18T21:16:39;2.40;99.90
41471;DHT22;27211;51.220;5.308;2022-12-18T21:19:05;2.30;99.90
41471;DHT22;27211;51.220;5.308;2022-12-18T21:21:31;2.40;99.90
41471;DHT22;27211;51.220;5.308;2022-12-18T21:23:57;2.40;99.90
41471;DHT22;27211;51.220;5.308;2022-12-18T21:26:25;2.40;99.90
41471;DHT22;27211;51.220;5.308;2022-12-18T21:28:53;2.40;99.90
41471;DHT22;27211;51.220;5.308;2022-12-18T21:31:21;2.40;99.90
41471;DHT22;27211;51.220;5.308;2022-12-18T21:33:48;2.50;99.90
41471;DHT22;27211;51.220;5.308;2022-12-18T21:36:14;2.60;99.90
41471;DHT22;27211;51.220;5.308;2022-12-18T21:38:41;2.60;99.90
41471;DHT22;27211;51.220;5.308;2022-12-18T21:41:08;2.60;99.90
41471;DHT22;27211;51.220;5.308;2022-12-18T21:43:37;2.50;99.90
41471;DHT22;27211;51.220;5.308;2022-12-18T21:46:21;2.50;99.90
41471;DHT22;27211;51.220;5.308;2022-12-18T21:48:47;2.60;99.90
41471;DHT22;27211;51.220;5.308;2022-12-18T21:51:12;2.50;99.90
41471;DHT22;27211;51.220;5.308;2022-12-18T21:53:38;2.70;99.90
41471;DHT22;27211;51.220;5.308;2022-12-18T21:56:07;2.70;99.90
41471;DHT22;27211;51.220;5.308;2022-12-18T21:58:33;2.60;99.90
41471;DHT22;27211;51.220;5.308;2022-12-18T22:01:00;2.80;99.90
41471;DHT22;27211;51.220;5.308;2022-12-18T22:03:26;2.90;99.90
41471;DHT22;27211;51.220;5.308;2022-12-18T22:05:51;2.90;99.90
41471;DHT22;27211;51.220;5.308;2022-12-18T22:08:17;2.80;99.90
41471;DHT22;27211;51.220;5.308;2022-12-18T22:10:43;3.00;99.90
41471;DHT22;27211;51.220;5.308;2022-12-18T22:13:09;2.90;99.90
41471;DHT22;27211;51.220;5.308;2022-12-18T22:15:35;2.90;99.90
41471;DHT22;27211;51.220;5.308;2022-12-18T22:18:00;3.10;99.90
41471;DHT22;27211;51.220;5.308;2022-12-18T22:20:27;3.10;99.90
41471;DHT22;27211;51.220;5.308;2022-12-18T22:22:53;3.10;99.90
41471;DHT22;27211;51.220;5.308;2022-12-18T22:25:19;3.20;99.90
41471;DHT22;27211;51.220;5.308;2022-12-18T22:27:45;3.20;99.90
41471;DHT22;27211;51.220;5.308;2022-12-18T22:30:30;3.30;99.90
41471;DHT22;27211;51.220;5.308;2022-12-18T22:32:56;3.20;99.90
41471;DHT22;27211;51.220;5.308;2022-12-18T22:35:22;3.10;99.90
41471;DHT22;27211;51.220;5.308;2022-12-18T22:37:47;3.00;99.90
41471;DHT22;27211;51.220;5.308;2022-12-18T22:40:22;3.00;99.90
41471;DHT22;27211;51.220;5.308;2022-12-18T22:42:49;3.20;99.90
41471;DHT22;27211;51.220;5.308;2022-12-18T22:45:15;3.40;99.90
41471;DHT22;27211;51.220;5.308;2022-12-18T22:47:41;3.50;99.90
41471;DHT22;27211;51.220;5.308;2022-12-18T22:50:08;3.50;99.90
41471;DHT22;27211;51.220;5.308;2022-12-18T22:52:35;3.50;99.90
41471;DHT22;27211;51.220;5.308;2022-12-18T22:55:01;3.40;99.90
41471;DHT22;27211;51.220;5.308;2022-12-18T22:57:27;3.40;99.90
41471;DHT22;27211;51.220;5.308;2022-12-18T22:59:53;3.40;99.90
41471;DHT22;27211;51.220;5.308;2022-12-18T23:02:19;3.30;99.90
41471;DHT22;27211;51.220;5.308;2022-12-18T23:04:45;3.30;99.90
41471;DHT22;27211;51.220;5.308;2022-12-18T23:07:11;3.30;99.90
41471;DHT22;27211;51.220;5.308;2022-12-18T23:09:38;3.30;99.90
41471;DHT22;27211;51.220;5.308;2022-12-18T23:12:05;3.30;99.90
41471;DHT22;27211;51.220;5.308;2022-12-18T23:14:31;3.40;99.90
41471;DHT22;27211;51.220;5.308;2022-12-18T23:16:57;3.30;99.90
41471;DHT22;27211;51.220;5.308;2022-12-18T23:19:24;3.20;99.90
41471;DHT22;27211;51.220;5.308;2022-12-18T23:21:50;3.30;99.90
41471;DHT22;27211;51.220;5.308;2022-12-18T23:24:17;3.40;99.90
41471;DHT22;27211;51.220;5.308;2022-12-18T23:26:43;3.50;99.90
41471;DHT22;27211;51.220;5.308;2022-12-18T23:29:09;3.50;99.90
41471;DHT22;27211;51.220;5.308;2022-12-18T23:31:36;3.50;99.90
41471;DHT22;27211;51.220;5.308;2022-12-18T23:34:04;3.40;99.90
41471;DHT22;27211;51.220;5.308;2022-12-18T23:36:31;3.40;99.90
41471;DHT22;27211;51.220;5.308;2022-12-18T23:38:58;3.50;99.90
41471;DHT22;27211;51.220;5.308;2022-12-18T23:41:27;3.50;99.90
41471;DHT22;27211;51.220;5.308;2022-12-18T23:43:54;3.50;99.90
41471;DHT22;27211;51.220;5.308;2022-12-18T23:46:23;3.50;99.90
41471;DHT22;27211;51.220;5.308;2022-12-18T23:48:49;3.40;99.90
41471;DHT22;27211;51.220;5.308;2022-12-18T23:51:18;3.50;99.90
41471;DHT22;27211;51.220;5.308;2022-12-18T23:53:45;3.50;99.90
41471;DHT22;27211;51.220;5.308;2022-12-18T23:56:11;3.50;99.90
41471;DHT22;27211;51.220;5.308;2022-12-18T23:58:38;3.50;99.90
